Time;durP1;ratioP1;P1;durP2;ratioP2;P2;SDS_P1;SDS_P2;PMS_P1;PMS_P2;Temp;Humidity;BMP_temperature;BMP_pressure;BME280_temperature;BME280_humidity;BME280_pressure;Samples;Min_cycle;Max_cycle;Signal;HPM_P1;HPM_P2
2021/04/17 00:00:14;;;;;;;1.20;1.10;;;22.80;28.50;;;;;;5128384;28;20214;-66
2021/04/17 00:02:40;;;;;;;1.83;1.00;;;22.80;28.50;;;;;;5122658;28;20198;-66
2021/04/17 00:05:07;;;;;;;0.90;0.90;;;22.80;28.60;;;;;;5131493;27;20750;-66
2021/04/17 00:07:33;;;;;;;1.23;1.13;;;22.80;28.60;;;;;;5126230;27;20261;-65
2021/04/17 00:09:59;;;;;;;1.33;1.20;;;22.80;28.50;;;;;;5127761;28;20226;-66
2021/04/17 00:12:24;;;;;;;1.00;1.00;;;22.80;28.50;;;;;;5119402;28;20205;-67
2021/04/17 00:14:50;;;;;;;1.27;1.17;;;22.80;28.50;;;;;;5118421;27;20215;-66
2021/04/17 00:17:16;;;;;;;1.40;1.30;;;22.80;28.50;;;;;;5127116;27;20218;-67
2021/04/17 00:19:42;;;;;;;1.23;1.13;;;22.70;28.40;;;;;;5120535;27;20208;-65
2021/04/17 00:22:08;;;;;;;1.47;1.33;;;22.80;28.50;;;;;;5119077;28;20203;-66
2021/04/17 00:24:34;;;;;;;1.30;1.20;;;22.70;28.40;;;;;;5117011;27;20224;-66
2021/04/17 00:27:02;;;;;;;1.23;1.10;;;22.70;28.40;;;;;;5117588;28;20202;-67
2021/04/17 00:29:28;;;;;;;2.03;1.20;;;22.70;28.40;;;;;;5129877;27;20230;-66
2021/04/17 00:31:54;;;;;;;1.10;1.00;;;22.70;28.40;;;;;;5129051;28;20202;-66
2021/04/17 00:34:20;;;;;;;1.50;1.10;;;22.70;28.40;;;;;;5129381;28;20251;-65
2021/04/17 00:36:46;;;;;;;1.00;1.00;;;22.70;28.40;;;;;;5127147;27;20660;-66
2021/04/17 00:39:12;;;;;;;1.77;1.03;;;22.70;28.40;;;;;;5133325;27;20225;-65
2021/04/17 00:41:38;;;;;;;1.23;1.03;;;22.70;28.40;;;;;;5135789;27;20285;-69
2021/04/17 00:44:04;;;;;;;1.53;1.27;;;22.70;28.30;;;;;;5152434;27;20560;-68
2021/04/17 00:46:30;;;;;;;2.03;1.10;;;22.70;28.40;;;;;;5126965;27;20198;-68
2021/04/17 00:48:56;;;;;;;1.27;1.17;;;22.70;28.40;;;;;;5128256;27;20746;-67
2021/04/17 00:51:22;;;;;;;1.17;1.07;;;22.70;28.40;;;;;;5129231;27;20203;-67
2021/04/17 00:53:49;;;;;;;1.10;1.10;;;22.70;28.40;;;;;;5132907;27;20206;-67
2021/04/17 00:56:15;;;;;;;1.10;1.10;;;22.70;28.40;;;;;;5123009;27;20222;-67
2021/04/17 00:58:41;;;;;;;2.47;1.20;;;22.70;28.40;;;;;;5132512;27;20212;-67
2021/04/17 01:01:07;;;;;;;1.10;1.00;;;22.70;28.40;;;;;;5125599;27;20199;-67
2021/04/17 01:03:33;;;;;;;1.30;1.20;;;22.70;28.30;;;;;;5132950;27;20202;-68
2021/04/17 01:05:59;;;;;;;1.87;1.10;;;22.70;28.40;;;;;;5132748;27;20287;-69
2021/04/17 01:08:25;;;;;;;1.63;1.00;;;22.70;28.40;;;;;;5132687;27;20214;-67
2021/04/17 01:10:51;;;;;;;1.17;1.07;;;22.70;28.40;;;;;;5128820;27;20204;-69
2021/04/17 01:13:17;;;;;;;1.80;1.20;;;22.70;28.40;;;;;;5122377;27;20251;-66
2021/04/17 01:15:43;;;;;;;1.20;1.10;;;22.70;28.40;;;;;;5136504;27;20225;-66
2021/04/17 01:18:09;;;;;;;1.60;1.13;;;22.70;28.40;;;;;;5114934;27;20582;-68
2021/04/17 01:20:35;;;;;;;1.10;1.03;;;22.70;28.40;;;;;;5132180;27;20203;-67
2021/04/17 01:23:01;;;;;;;1.03;1.03;;;22.70;28.40;;;;;;5127153;27;20197;-66
2021/04/17 01:25:27;;;;;;;3.10;1.30;;;22.70;28.40;;;;;;5131693;27;20233;-68
2021/04/17 01:27:53;;;;;;;2.37;1.13;;;22.70;28.40;;;;;;5131810;27;20706;-67
2021/04/17 01:30:18;;;;;;;1.10;1.00;;;22.70;28.30;;;;;;5129876;27;20243;-67
2021/04/17 01:32:44;;;;;;;1.40;1.30;;;22.70;28.30;;;;;;5130199;27;20209;-67
2021/04/17 01:35:10;;;;;;;1.30;1.20;;;22.70;28.40;;;;;;5128851;27;20287;-66
2021/04/17 01:37:36;;;;;;;1.47;1.10;;;22.70;28.40;;;;;;5125957;27;20194;-66
2021/04/17 01:40:02;;;;;;;1.17;1.10;;;22.70;28.40;;;;;;5131600;27;20199;-66
2021/04/17 01:42:28;;;;;;;0.90;0.90;;;22.70;28.40;;;;;;5133816;27;20206;-67
2021/04/17 01:44:54;;;;;;;1.70;1.20;;;22.70;28.40;;;;;;5130893;27;20641;-67
2021/04/17 01:47:20;;;;;;;0.90;0.90;;;22.70;28.40;;;;;;5133164;27;20202;-67
2021/04/17 01:49:46;;;;;;;1.47;1.10;;;22.70;28.40;;;;;;5128116;27;20237;-68
2021/04/17 01:52:12;;;;;;;1.30;1.17;;;22.70;28.40;;;;;;5128506;27;20565;-68
2021/04/17 01:54:41;;;;;;;1.80;1.20;;;22.70;28.40;;;;;;5118776;27;20297;-68
2021/04/17 01:57:07;;;;;;;1.13;1.10;;;22.70;28.40;;;;;;5129873;27;20198;-68
2021/04/17 01:59:32;;;;;;;1.67;1.33;;;22.70;28.40;;;;;;5132842;27;20621;-67
2021/04/17 02:01:58;;;;;;;1.50;1.40;;;22.70;28.40;;;;;;5127259;27;20195;-67
2021/04/17 02:04:24;;;;;;;1.53;1.07;;;22.70;28.40;;;;;;5133381;27;20323;-67
2021/04/17 02:06:50;;;;;;;1.17;1.07;;;22.70;28.40;;;;;;5124541;27;20199;-67
2021/04/17 02:09:16;;;;;;;1.50;1.20;;;22.70;28.40;;;;;;5130377;27;20241;-68
2021/04/17 02:11:42;;;;;;;1.73;1.30;;;22.70;28.50;;;;;;5126247;27;20203;-68
2021/04/17 02:14:08;;;;;;;1.10;1.10;;;22.70;28.40;;;;;;5115440;27;20785;-67
2021/04/17 02:16:34;;;;;;;1.10;1.00;;;22.70;28.40;;;;;;5130830;27;20638;-68
2021/04/17 02:19:00;;;;;;;1.73;1.20;;;22.70;28.40;;;;;;5130216;27;20214;-67
2021/04/17 02:21:26;;;;;;;1.20;1.10;;;22.70;28.40;;;;;;5123446;27;20268;-67
2021/04/17 02:23:52;;;;;;;1.20;1.10;;;22.70;28.40;;;;;;5118179;27;20211;-67
2021/04/17 02:26:18;;;;;;;1.20;1.10;;;22.70;28.40;;;;;;5127815;27;20202;-67
2021/04/17 02:28:44;;;;;;;1.40;1.30;;;22.70;28.40;;;;;;5121506;27;20252;-67
2021/04/17 02:31:10;;;;;;;1.30;1.20;;;22.70;28.40;;;;;;5127561;27;20194;-67
2021/04/17 02:33:36;;;;;;;1.07;1.07;;;22.70;28.50;;;;;;5132743;27;20643;-72
2021/04/17 02:36:02;;;;;;;1.20;1.10;;;22.70;28.50;;;;;;5122406;27;20276;-67
2021/04/17 02:38:28;;;;;;;1.13;1.10;;;22.70;28.40;;;;;;5125751;27;20187;-67
2021/04/17 02:40:54;;;;;;;1.30;1.20;;;22.70;28.50;;;;;;5128410;27;20232;-66
2021/04/17 02:43:20;;;;;;;1.07;1.00;;;22.70;28.50;;;;;;5129510;27;20221;-67
2021/04/17 02:45:46;;;;;;;1.30;1.13;;;22.70;28.50;;;;;;5129030;27;20218;-68
2021/04/17 02:48:12;;;;;;;1.37;1.10;;;22.70;28.50;;;;;;5130122;27;20198;-67
2021/04/17 02:50:38;;;;;;;1.30;1.20;;;22.70;28.50;;;;;;5130226;27;20681;-67
2021/04/17 02:53:04;;;;;;;1.20;1.10;;;22.70;28.50;;;;;;5132230;27;20206;-67
2021/04/17 02:55:30;;;;;;;1.43;1.10;;;22.70;28.50;;;;;;5127904;27;20223;-67
2021/04/17 02:57:56;;;;;;;1.23;1.13;;;22.70;28.50;;;;;;5126670;27;20195;-67
2021/04/17 03:00:23;;;;;;;1.17;1.07;;;22.70;28.50;;;;;;5117455;27;20210;-67
2021/04/17 03:02:49;;;;;;;1.77;1.40;;;22.70;28.50;;;;;;5125776;27;20207;-67
2021/04/17 03:05:15;;;;;;;1.60;1.50;;;22.70;28.50;;;;;;5129775;27;20286;-67
2021/04/17 03:07:41;;;;;;;1.33;1.20;;;22.70;28.50;;;;;;5129934;27;20563;-67
2021/04/17 03:10:07;;;;;;;1.67;1.10;;;22.70;28.50;;;;;;5130464;27;20226;-67
2021/04/17 03:12:33;;;;;;;2.23;1.30;;;22.70;28.50;;;;;;5120552;27;20622;-67
2021/04/17 03:14:59;;;;;;;1.37;1.27;;;22.70;28.50;;;;;;5138030;27;20262;-68
2021/04/17 03:17:24;;;;;;;1.27;1.17;;;22.70;28.50;;;;;;5136063;27;20225;-68
2021/04/17 03:19:50;;;;;;;1.30;1.20;;;22.70;28.50;;;;;;5125095;27;20244;-67
2021/04/17 03:22:16;;;;;;;1.40;1.30;;;22.70;28.40;;;;;;5119080;27;20199;-66
2021/04/17 03:24:42;;;;;;;1.60;1.40;;;22.70;28.50;;;;;;5116604;27;20593;-66
2021/04/17 03:27:08;;;;;;;1.10;1.10;;;22.70;28.50;;;;;;5117752;27;20203;-68
2021/04/17 03:29:34;;;;;;;1.30;1.20;;;22.70;28.50;;;;;;5129133;27;20298;-67
2021/04/17 03:32:00;;;;;;;1.40;1.20;;;22.70;28.50;;;;;;5136239;27;20561;-67
2021/04/17 03:34:26;;;;;;;2.20;1.80;;;22.70;28.50;;;;;;5127424;27;20226;-67
2021/04/17 03:36:52;;;;;;;1.73;1.30;;;22.70;28.50;;;;;;5131103;27;20267;-67
2021/04/17 03:39:18;;;;;;;2.17;1.37;;;22.70;28.50;;;;;;5130185;27;20572;-66
2021/04/17 03:41:44;;;;;;;3.03;1.67;;;22.70;28.60;;;;;;5120109;27;20204;-67
2021/04/17 03:44:10;;;;;;;1.40;1.30;;;22.70;28.60;;;;;;5123395;27;20218;-67
2021/04/17 03:46:36;;;;;;;1.30;1.20;;;22.70;29.10;;;;;;5131184;27;20218;-66
2021/04/17 03:49:02;;;;;;;2.40;1.33;;;22.70;28.60;;;;;;5132748;27;20225;-67
2021/04/17 03:51:28;;;;;;;1.67;1.33;;;22.70;28.60;;;;;;5126422;28;20196;-67
2021/04/17 03:53:54;;;;;;;1.77;1.20;;;22.70;28.60;;;;;;5120305;28;20283;-67
2021/04/17 03:56:20;;;;;;;2.73;1.40;;;22.70;28.60;;;;;;5131618;27;20223;-66
2021/04/17 03:58:46;;;;;;;1.20;1.20;;;22.70;28.60;;;;;;5129525;27;20225;-67
2021/04/17 04:01:12;;;;;;;1.40;1.30;;;22.70;28.60;;;;;;5125114;28;20202;-67
2021/04/17 04:03:38;;;;;;;2.00;1.47;;;22.70;28.60;;;;;;5115906;28;20671;-67
2021/04/17 04:06:04;;;;;;;1.00;1.00;;;22.70;28.60;;;;;;5131756;27;20229;-67
2021/04/17 04:08:30;;;;;;;1.30;1.20;;;22.70;28.60;;;;;;5127158;28;20272;-67
2021/04/17 04:10:56;;;;;;;1.27;1.17;;;22.70;28.60;;;;;;5130674;27;20252;-67
2021/04/17 04:13:22;;;;;;;1.50;1.40;;;22.70;28.60;;;;;;5119222;27;20321;-67
2021/04/17 04:15:48;;;;;;;2.27;1.60;;;22.70;28.60;;;;;;5131166;27;20707;-66
2021/04/17 04:18:13;;;;;;;1.23;1.13;;;22.60;28.60;;;;;;5133471;27;20191;-67
2021/04/17 04:20:39;;;;;;;1.40;1.30;;;22.70;28.60;;;;;;5130677;27;20203;-67
2021/04/17 04:23:05;;;;;;;1.67;1.37;;;22.70;28.70;;;;;;5129767;27;20588;-67
2021/04/17 04:25:31;;;;;;;1.50;1.33;;;22.70;28.60;;;;;;5125898;27;20214;-66
2021/04/17 04:27:57;;;;;;;1.50;1.40;;;22.70;28.60;;;;;;5133348;27;20202;-68
2021/04/17 04:30:23;;;;;;;1.40;1.30;;;22.70;28.60;;;;;;5134954;27;20229;-68
2021/04/17 04:32:49;;;;;;;1.30;1.20;;;22.70;29.20;;;;;;5119854;27;20202;-67
2021/04/17 04:35:15;;;;;;;1.30;1.20;;;22.70;28.60;;;;;;5123846;27;20856;-66
2021/04/17 04:37:41;;;;;;;1.70;1.60;;;22.70;28.70;;;;;;5122278;27;20213;-67
2021/04/17 04:40:07;;;;;;;1.50;1.30;;;22.70;28.70;;;;;;5142360;27;20217;-66
2021/04/17 04:42:33;;;;;;;1.40;1.30;;;22.70;28.60;;;;;;5120371;27;20196;-66
2021/04/17 04:44:59;;;;;;;2.50;1.27;;;22.70;28.60;;;;;;5124581;27;20236;-67
2021/04/17 04:47:25;;;;;;;1.30;1.20;;;22.70;28.70;;;;;;5134239;27;20679;-66
2021/04/17 04:49:51;;;;;;;1.20;1.10;;;22.70;29.20;;;;;;5133115;27;20237;-67
2021/04/17 04:52:17;;;;;;;3.40;1.30;;;22.70;28.70;;;;;;5120448;27;20205;-66
2021/04/17 04:54:43;;;;;;;1.60;1.40;;;22.70;28.70;;;;;;5128792;27;20221;-66
2021/04/17 04:57:09;;;;;;;1.67;1.30;;;22.70;28.70;;;;;;5126160;27;20200;-66
2021/04/17 04:59:35;;;;;;;1.57;1.47;;;22.60;28.60;;;;;;5117806;27;20198;-66
2021/04/17 05:02:01;;;;;;;1.90;1.43;;;22.70;28.70;;;;;;5131557;27;20210;-66
2021/04/17 05:04:27;;;;;;;2.50;1.60;;;22.70;28.70;;;;;;5118921;27;20223;-67
2021/04/17 05:06:53;;;;;;;2.17;1.57;;;22.60;29.00;;;;;;5130255;27;20280;-67
2021/04/17 05:09:19;;;;;;;3.93;1.53;;;22.70;29.10;;;;;;5134241;27;20264;-68
2021/04/17 05:11:45;;;;;;;2.20;1.40;;;22.70;29.30;;;;;;5132721;27;20202;-67
2021/04/17 05:14:11;;;;;;;1.40;1.30;;;22.70;29.20;;;;;;5130706;27;20229;-67
2021/04/17 05:16:37;;;;;;;1.60;1.30;;;22.70;29.10;;;;;;5124507;27;20658;-67
2021/04/17 05:19:03;;;;;;;1.37;1.27;;;22.70;29.00;;;;;;5122383;27;20198;-67
2021/04/17 05:21:29;;;;;;;2.20;1.60;;;22.70;29.50;;;;;;5128419;27;20207;-67
2021/04/17 05:23:54;;;;;;;2.33;1.37;;;22.70;28.90;;;;;;5130817;27;20646;-66
2021/04/17 05:26:20;;;;;;;2.40;1.60;;;22.70;28.90;;;;;;5123382;27;20218;-66
2021/04/17 05:28:46;;;;;;;2.37;1.90;;;22.70;28.90;;;;;;5113225;28;20631;-66
2021/04/17 05:31:12;;;;;;;1.70;1.50;;;22.70;28.80;;;;;;5121555;27;20198;-66
2021/04/17 05:33:38;;;;;;;1.37;1.27;;;22.70;28.80;;;;;;5130408;27;20223;-66
2021/04/17 05:36:04;;;;;;;1.40;1.30;;;22.70;28.90;;;;;;5117329;27;20253;-66
2021/04/17 05:38:30;;;;;;;1.33;1.20;;;22.70;28.90;;;;;;5131614;27;20307;-64
2021/04/17 05:40:56;;;;;;;3.70;1.40;;;22.70;28.80;;;;;;5130826;27;20201;-65
2021/04/17 05:43:22;;;;;;;3.13;1.50;;;22.70;28.90;;;;;;5119858;27;20235;-66
2021/04/17 05:45:48;;;;;;;1.60;1.50;;;22.70;28.80;;;;;;5120796;27;20647;-66
2021/04/17 05:48:14;;;;;;;1.80;1.50;;;22.70;28.80;;;;;;5133919;27;20206;-66
2021/04/17 05:50:40;;;;;;;2.20;1.43;;;22.70;28.90;;;;;;5129025;27;20226;-65
2021/04/17 05:53:06;;;;;;;1.63;1.20;;;22.70;28.80;;;;;;5120313;27;20203;-66
2021/04/17 05:55:32;;;;;;;1.47;1.30;;;22.70;28.90;;;;;;5113367;28;20214;-66
2021/04/17 05:57:58;;;;;;;2.07;1.60;;;22.70;28.90;;;;;;5126984;27;20205;-66
2021/04/17 06:00:24;;;;;;;2.40;1.40;;;22.70;28.80;;;;;;5133130;27;20210;-66
2021/04/17 06:02:50;;;;;;;2.80;1.40;;;22.70;28.80;;;;;;5127720;27;20519;-70
2021/04/17 06:05:16;;;;;;;2.80;1.57;;;22.70;28.80;;;;;;5128579;27;20280;-66
2021/04/17 06:07:43;;;;;;;1.70;1.30;;;22.70;28.90;;;;;;5110882;27;20199;-65
2021/04/17 06:10:09;;;;;;;1.80;1.40;;;22.70;28.80;;;;;;5130545;27;20674;-66
2021/04/17 06:12:34;;;;;;;3.13;1.50;;;22.70;28.90;;;;;;5131836;27;20201;-66
2021/04/17 06:15:00;;;;;;;1.87;1.40;;;22.70;28.90;;;;;;5113234;27;20222;-66
2021/04/17 06:17:26;;;;;;;1.90;1.60;;;22.70;28.90;;;;;;5127071;27;20198;-67
2021/04/17 06:19:52;;;;;;;1.40;1.30;;;22.70;28.90;;;;;;5129913;27;20206;-66
2021/04/17 06:22:18;;;;;;;1.60;1.30;;;22.70;28.90;;;;;;5130241;27;20198;-67
2021/04/17 06:24:44;;;;;;;1.40;1.30;;;22.70;28.90;;;;;;5117882;27;20275;-67
2021/04/17 06:27:10;;;;;;;1.80;1.47;;;22.70;28.90;;;;;;5117102;27;20207;-67
2021/04/17 06:29:36;;;;;;;2.30;1.63;;;22.70;28.90;;;;;;5115455;27;20218;-67
2021/04/17 06:32:02;;;;;;;2.57;1.30;;;22.70;28.90;;;;;;5128193;27;20576;-65
2021/04/17 06:34:28;;;;;;;1.53;1.43;;;22.70;28.90;;;;;;5122342;27;20219;-66
2021/04/17 06:36:54;;;;;;;2.20;1.20;;;22.70;28.90;;;;;;5115957;27;20207;-67
2021/04/17 06:39:20;;;;;;;1.43;1.33;;;22.70;28.90;;;;;;5133029;27;20207;-66
2021/04/17 06:41:47;;;;;;;3.00;1.70;;;22.70;28.90;;;;;;5123100;27;20624;-66
2021/04/17 06:44:13;;;;;;;2.30;1.53;;;22.70;28.80;;;;;;5129410;27;20504;-67
2021/04/17 06:46:39;;;;;;;1.93;1.20;;;22.70;28.90;;;;;;5122177;27;20251;-66
2021/04/17 06:49:05;;;;;;;1.93;1.77;;;22.70;28.90;;;;;;5111945;27;22181;-66
2021/04/17 06:51:31;;;;;;;2.17;1.50;;;22.70;28.90;;;;;;5121770;27;20262;-66
2021/04/17 06:53:57;;;;;;;1.90;1.20;;;22.70;28.90;;;;;;5126874;27;20223;-66
2021/04/17 06:56:23;;;;;;;2.63;1.60;;;22.60;28.80;;;;;;5125349;27;20548;-67
2021/04/17 06:58:49;;;;;;;1.83;1.30;;;22.70;28.90;;;;;;5128095;27;20199;-63
2021/04/17 07:01:15;;;;;;;2.80;2.10;;;22.70;29.00;;;;;;5107115;27;20702;-65
2021/04/17 07:03:41;;;;;;;3.17;1.97;;;22.70;29.30;;;;;;5114754;27;20230;-66
2021/04/17 07:06:07;;;;;;;2.70;1.53;;;22.60;29.90;;;;;;5111016;28;20598;-66
2021/04/17 07:08:33;;;;;;;4.33;2.33;;;22.60;30.30;;;;;;5126260;27;20359;-67
2021/04/17 07:10:59;;;;;;;3.63;2.00;;;22.60;31.20;;;;;;5114929;27;20231;-66
2021/04/17 07:13:26;;;;;;;3.97;1.90;;;22.60;30.50;;;;;;5122858;27;20249;-66
2021/04/17 07:15:52;;;;;;;2.73;1.60;;;22.60;30.50;;;;;;5124931;27;20278;-66
2021/04/17 07:18:18;;;;;;;2.50;1.67;;;22.60;30.60;;;;;;5126496;27;20240;-66
2021/04/17 07:20:44;;;;;;;2.50;1.80;;;22.60;30.50;;;;;;5120525;27;20653;-66
2021/04/17 07:23:10;;;;;;;5.00;2.03;;;22.60;30.60;;;;;;5126525;27;20234;-66
2021/04/17 07:25:36;;;;;;;4.23;1.90;;;22.60;30.60;;;;;;5128589;27;20202;-66
2021/04/17 07:28:02;;;;;;;4.10;1.97;;;22.60;30.60;;;;;;5118990;27;20211;-66
2021/04/17 07:30:28;;;;;;;4.73;1.67;;;22.60;30.70;;;;;;5125462;27;20593;-64
2021/04/17 07:32:54;;;;;;;4.07;1.93;;;22.70;30.20;;;;;;5124047;27;20271;-61
2021/04/17 07:35:20;;;;;;;4.47;2.03;;;22.60;30.20;;;;;;5126246;27;20205;-62
2021/04/17 07:37:46;;;;;;;7.60;4.33;;;22.60;30.50;;;;;;5125231;27;20646;-64
2021/04/17 07:40:12;;;;;;;9.90;8.90;;;22.40;28.60;;;;;;5115743;27;20217;-66
2021/04/17 07:42:38;;;;;;;9.37;8.37;;;21.00;24.70;;;;;;5110686;28;20206;-59
2021/04/17 07:45:04;;;;;;;10.23;9.30;;;20.30;25.10;;;;;;5119021;27;20565;-60
2021/04/17 07:47:30;;;;;;;7.47;6.50;;;19.80;24.10;;;;;;5120585;27;20261;-62
2021/04/17 07:49:56;;;;;;;5.83;5.10;;;20.30;25.30;;;;;;5122904;27;20695;-62
2021/04/17 07:52:22;;;;;;;5.03;4.53;;;21.00;25.40;;;;;;5127042;27;20202;-62
2021/04/17 07:54:48;;;;;;;4.40;4.00;;;21.30;25.70;;;;;;5137375;27;20269;-62
2021/04/17 07:57:14;;;;;;;3.87;3.33;;;21.60;25.90;;;;;;5113290;27;20197;-63
2021/04/17 07:59:41;;;;;;;3.70;3.40;;;21.70;26.10;;;;;;5122296;27;20201;-62
2021/04/17 08:02:07;;;;;;;3.03;2.80;;;21.90;26.30;;;;;;5114615;27;20205;-62
2021/04/17 08:04:33;;;;;;;2.87;2.67;;;22.00;26.40;;;;;;5131153;27;20226;-63
2021/04/17 08:06:59;;;;;;;3.00;2.80;;;22.10;26.60;;;;;;5122502;27;20201;-63
2021/04/17 08:09:25;;;;;;;2.53;2.37;;;22.10;26.70;;;;;;5137539;27;20220;-63
2021/04/17 08:11:51;;;;;;;2.33;2.13;;;22.20;26.90;;;;;;5126397;27;20657;-63
2021/04/17 08:14:17;;;;;;;2.40;2.20;;;22.20;27.00;;;;;;5118733;28;20281;-63
2021/04/17 08:16:43;;;;;;;2.40;2.20;;;22.20;27.10;;;;;;5130534;27;20208;-63
2021/04/17 08:19:09;;;;;;;1.80;1.70;;;22.30;27.20;;;;;;5118701;27;20213;-63
2021/04/17 08:21:35;;;;;;;1.90;1.80;;;22.30;27.30;;;;;;5130283;27;20582;-62
2021/04/17 08:24:01;;;;;;;2.63;1.77;;;22.30;27.50;;;;;;5143020;27;20221;-63
2021/04/17 08:26:27;;;;;;;1.80;1.70;;;22.30;27.60;;;;;;5115779;27;20203;-65
2021/04/17 08:28:53;;;;;;;1.70;1.60;;;22.30;27.60;;;;;;5122231;27;20622;-69
2021/04/17 08:31:19;;;;;;;1.70;1.60;;;22.40;27.60;;;;;;5116037;27;20588;-62
2021/04/17 08:33:45;;;;;;;1.77;1.67;;;22.50;27.70;;;;;;5116659;27;20218;-65
2021/04/17 08:36:11;;;;;;;2.10;1.60;;;22.50;27.70;;;;;;5121039;27;20198;-67
2021/04/17 08:38:37;;;;;;;1.83;1.60;;;22.50;27.70;;;;;;5120418;27;20297;-68
2021/04/17 08:41:03;;;;;;;1.50;1.40;;;22.50;27.70;;;;;;5125217;27;20206;-60
2021/04/17 08:43:29;;;;;;;3.03;1.63;;;22.50;27.70;;;;;;5122049;27;20280;-63
2021/04/17 08:45:55;;;;;;;1.73;1.63;;;22.50;27.70;;;;;;5114793;27;20200;-64
2021/04/17 08:48:21;;;;;;;1.53;1.43;;;22.50;27.70;;;;;;5123724;27;20210;-65
2021/04/17 08:50:47;;;;;;;1.50;1.40;;;22.50;27.70;;;;;;5118490;27;20705;-62
2021/04/17 08:53:13;;;;;;;1.70;1.60;;;22.50;27.70;;;;;;5113592;27;20222;-65
2021/04/17 08:55:39;;;;;;;1.60;1.50;;;22.50;27.80;;;;;;5136192;27;20207;-64
2021/04/17 08:58:05;;;;;;;1.90;1.80;;;22.50;27.70;;;;;;5119802;27;20603;-60
2021/04/17 09:00:31;;;;;;;2.97;1.80;;;22.50;27.90;;;;;;5125638;27;20207;-62
2021/04/17 09:02:57;;;;;;;3.50;1.97;;;22.60;28.30;;;;;;5120661;27;20251;-60
2021/04/17 09:05:23;;;;;;;6.03;1.87;;;22.60;28.20;;;;;;5131582;27;20206;-64
2021/04/17 09:07:49;;;;;;;3.10;1.67;;;22.60;28.10;;;;;;5118074;27;20692;-65
2021/04/17 09:10:14;;;;;;;2.07;1.50;;;22.60;28.10;;;;;;5120163;27;20241;-64
2021/04/17 09:12:40;;;;;;;2.17;1.80;;;22.60;28.20;;;;;;5126642;27;20237;-63
2021/04/17 09:15:06;;;;;;;2.17;1.93;;;22.60;28.30;;;;;;5118545;27;20198;-63
2021/04/17 09:17:32;;;;;;;2.10;1.90;;;22.50;28.40;;;;;;5128218;27;20212;-63
2021/04/17 09:19:58;;;;;;;3.00;1.80;;;22.50;28.50;;;;;;5122766;27;20556;-63
2021/04/17 09:22:24;;;;;;;3.93;1.70;;;22.50;28.50;;;;;;5123615;27;20222;-63
2021/04/17 09:24:51;;;;;;;1.80;1.70;;;22.50;28.50;;;;;;5131132;27;20662;-63
2021/04/17 09:27:17;;;;;;;1.90;1.70;;;22.50;28.50;;;;;;5136218;27;20205;-63
2021/04/17 09:29:43;;;;;;;3.37;1.60;;;22.50;28.50;;;;;;5138003;27;20255;-58
2021/04/17 09:32:09;;;;;;;2.83;1.90;;;22.50;28.50;;;;;;5125236;27;20230;-63
2021/04/17 09:34:35;;;;;;;1.70;1.60;;;22.50;28.50;;;;;;5128355;27;20197;-63
2021/04/17 09:37:01;;;;;;;2.10;1.90;;;22.50;28.50;;;;;;5133283;27;20203;-63
2021/04/17 09:39:27;;;;;;;1.60;1.50;;;22.50;28.50;;;;;;5134850;27;20201;-63
2021/04/17 09:41:53;;;;;;;1.77;1.67;;;22.50;28.60;;;;;;5138485;27;20591;-60
2021/04/17 09:44:19;;;;;;;3.63;1.60;;;22.50;28.60;;;;;;5128913;27;20248;-59
2021/04/17 09:46:45;;;;;;;1.73;1.60;;;22.60;28.70;;;;;;5140433;27;20212;-58
2021/04/17 09:49:11;;;;;;;2.37;1.63;;;22.60;28.40;;;;;;5133462;27;20215;-59
2021/04/17 09:51:37;;;;;;;2.50;1.70;;;22.60;28.50;;;;;;5149975;27;20208;-60
2021/04/17 09:54:03;;;;;;;2.03;1.60;;;22.60;28.60;;;;;;5129934;27;20561;-60
2021/04/17 09:56:29;;;;;;;4.20;1.60;;;22.60;28.60;;;;;;5111635;28;20260;-59
2021/04/17 09:58:55;;;;;;;2.90;1.70;;;22.60;28.60;;;;;;5112878;28;20221;-58
2021/04/17 10:01:21;;;;;;;1.60;1.50;;;22.60;28.70;;;;;;5113629;27;20199;-60
2021/04/17 10:03:47;;;;;;;2.27;1.80;;;22.60;28.70;;;;;;5121243;27;20220;-59
2021/04/17 10:06:13;;;;;;;3.40;2.00;;;22.60;28.70;;;;;;5123663;27;20233;-60
2021/04/17 10:08:39;;;;;;;2.60;1.80;;;22.60;28.70;;;;;;5125946;27;20191;-64
2021/04/17 10:11:05;;;;;;;1.60;1.50;;;22.60;28.70;;;;;;5118124;27;20251;-60
2021/04/17 10:13:31;;;;;;;1.77;1.60;;;22.60;28.80;;;;;;5130736;27;20221;-59
2021/04/17 10:15:57;;;;;;;2.87;1.70;;;22.60;28.70;;;;;;5118254;27;20222;-59
2021/04/17 10:18:23;;;;;;;2.17;1.80;;;22.60;28.80;;;;;;5122908;27;20199;-62
2021/04/17 10:20:49;;;;;;;3.70;1.90;;;22.60;29.00;;;;;;5129901;27;20204;-64
2021/04/17 10:23:15;;;;;;;2.27;1.67;;;22.60;29.10;;;;;;5121172;27;20230;-60
2021/04/17 10:25:41;;;;;;;2.00;1.63;;;22.60;28.70;;;;;;5123755;27;20199;-65
2021/04/17 10:28:07;;;;;;;3.00;1.60;;;22.70;28.80;;;;;;5125378;27;20535;-63
2021/04/17 10:30:33;;;;;;;4.17;1.90;;;22.70;29.10;;;;;;5121966;27;20270;-62
2021/04/17 10:32:59;;;;;;;2.00;1.70;;;22.60;29.00;;;;;;5124519;27;20226;-61
2021/04/17 10:35:25;;;;;;;6.87;1.90;;;22.60;29.20;;;;;;5147361;27;20650;-63
2021/04/17 10:37:51;;;;;;;1.83;1.70;;;22.60;29.40;;;;;;5143491;27;20193;-62
2021/04/17 10:40:17;;;;;;;2.57;1.73;;;22.60;29.50;;;;;;5129248;27;20577;-62
2021/04/17 10:42:43;;;;;;;3.53;1.70;;;22.60;29.70;;;;;;5122149;27;20218;-61
2021/04/17 10:45:08;;;;;;;2.67;1.63;;;22.60;29.70;;;;;;5117662;27;20195;-60
2021/04/17 10:47:34;;;;;;;3.23;1.70;;;22.70;29.50;;;;;;5124929;27;20294;-61
2021/04/17 10:50:00;;;;;;;3.83;1.50;;;22.70;29.80;;;;;;5120998;27;20243;-60
2021/04/17 10:52:26;;;;;;;3.07;1.67;;;22.70;29.50;;;;;;5122058;27;20214;-60
2021/04/17 10:54:52;;;;;;;4.23;1.87;;;22.70;29.40;;;;;;5119629;27;20227;-61
2021/04/17 10:57:18;;;;;;;3.25;2.10;;;22.70;29.40;;;;;;5115268;27;20240;-62
2021/04/17 10:59:44;;;;;;;2.47;1.50;;;22.70;29.50;;;;;;5118996;27;20595;-64
2021/04/17 11:02:10;;;;;;;2.47;2.00;;;22.70;29.30;;;;;;5114908;27;20233;-66
2021/04/17 11:04:36;;;;;;;2.20;1.70;;;22.70;29.30;;;;;;5121939;27;20264;-67
2021/04/17 11:07:02;;;;;;;3.50;2.20;;;22.70;29.40;;;;;;5128374;27;20198;-65
2021/04/17 11:09:28;;;;;;;2.37;1.60;;;22.70;29.40;;;;;;5125644;27;20560;-64
2021/04/17 11:11:54;;;;;;;2.07;1.70;;;22.70;29.50;;;;;;5124162;27;20234;-64
2021/04/17 11:14:20;;;;;;;3.70;1.80;;;22.70;29.60;;;;;;5114008;27;20214;-63
2021/04/17 11:16:47;;;;;;;2.70;1.80;;;22.70;29.60;;;;;;5113224;27;20670;-64
2021/04/17 11:19:13;;;;;;;2.77;1.50;;;22.70;29.80;;;;;;5114782;27;20239;-64
2021/04/17 11:21:39;;;;;;;2.60;1.70;;;22.70;29.90;;;;;;5127227;27;20219;-64
2021/04/17 11:24:05;;;;;;;1.98;1.70;;;22.70;30.00;;;;;;5129841;27;20598;-64
2021/04/17 11:26:33;;;;;;;2.77;1.80;;;22.70;30.10;;;;;;5124943;27;20237;-64
2021/04/17 11:28:59;;;;;;;5.17;1.70;;;22.70;30.30;;;;;;5126398;27;20195;-64
2021/04/17 11:31:25;;;;;;;2.87;1.90;;;22.70;30.40;;;;;;5125040;27;20238;-64
2021/04/17 11:33:51;;;;;;;1.70;1.60;;;22.70;30.70;;;;;;5123814;27;20222;-64
2021/04/17 11:36:17;;;;;;;2.40;1.87;;;22.70;30.70;;;;;;5134028;27;20258;-65
2021/04/17 11:38:43;;;;;;;2.00;1.43;;;22.70;31.20;;;;;;5129979;27;20210;-64
2021/04/17 11:41:09;;;;;;;2.27;2.00;;;22.60;31.20;;;;;;5134798;27;20279;-64
2021/04/17 11:43:35;;;;;;;1.60;1.50;;;22.60;31.40;;;;;;5149855;27;20641;-64
2021/04/17 11:46:00;;;;;;;1.80;1.60;;;22.60;31.80;;;;;;5140224;27;20202;-63
2021/04/17 11:48:26;;;;;;;2.30;1.60;;;22.70;31.70;;;;;;5135268;27;20214;-63
2021/04/17 11:50:52;;;;;;;3.43;1.87;;;22.60;31.90;;;;;;5131569;27;20230;-63
2021/04/17 11:53:20;;;;;;;2.20;1.80;;;22.60;31.90;;;;;;5148044;27;20210;-64
2021/04/17 11:55:46;;;;;;;1.93;1.53;;;22.60;32.00;;;;;;5140814;27;20199;-64
2021/04/17 11:58:12;;;;;;;2.20;1.30;;;22.60;32.30;;;;;;5117951;27;20199;-64
2021/04/17 12:00:38;;;;;;;1.97;1.83;;;22.60;32.10;;;;;;5117794;28;20190;-64
2021/04/17 12:03:04;;;;;;;1.90;1.60;;;22.60;32.10;;;;;;5126140;27;20645;-64
2021/04/17 12:05:30;;;;;;;1.80;1.70;;;22.60;31.90;;;;;;5136789;27;20286;-64
2021/04/17 12:07:56;;;;;;;1.50;1.40;;;22.60;31.90;;;;;;5131538;27;20195;-64
2021/04/17 12:10:22;;;;;;;2.27;1.60;;;22.60;31.90;;;;;;5129400;27;20226;-64
2021/04/17 12:12:48;;;;;;;1.77;1.50;;;22.60;31.90;;;;;;5129652;27;20245;-64
2021/04/17 12:15:14;;;;;;;3.53;1.80;;;22.60;31.90;;;;;;5129202;27;20210;-64
2021/04/17 12:17:40;;;;;;;2.33;1.60;;;22.60;32.00;;;;;;5136491;27;20575;-64
2021/04/17 12:20:06;;;;;;;2.07;1.47;;;22.60;31.90;;;;;;5139022;27;20201;-64
2021/04/17 12:22:32;;;;;;;1.70;1.60;;;22.60;32.00;;;;;;5126704;27;20590;-64
2021/04/17 12:24:58;;;;;;;1.50;1.40;;;22.60;32.20;;;;;;5138401;27;20206;-65
2021/04/17 12:27:24;;;;;;;2.37;1.77;;;22.60;32.20;;;;;;5136597;27;20662;-65
2021/04/17 12:29:50;;;;;;;1.70;1.60;;;22.60;32.40;;;;;;5137042;22;20229;-50
2021/04/17 12:32:16;;;;;;;2.33;1.60;;;22.60;32.60;;;;;;5110923;28;20702;-58
2021/04/17 12:34:42;;;;;;;2.10;1.40;;;22.60;32.70;;;;;;5112121;28;20272;-46
2021/04/17 12:37:08;;;;;;;1.57;1.47;;;22.60;32.70;;;;;;5113747;28;20601;-60
2021/04/17 12:39:34;;;;;;;4.00;1.53;;;22.60;32.70;;;;;;5111107;28;20211;-47